WEATHER/FLIGHT PLANNING

Hattiesburg Radar

 

 

 

 

Weather Links

Flight Planning Links

 

METAR

2015/04/02 03:53 KHBG 020353Z AUTO 18005KT 10SM CLR 21/19 A3007 RMK AO2 SLPNO T02110189

TAF

2015/04/02 03:57 TAF KHBG 020254Z 0203/0224 18003KT P6SM SCT250 FM020700 00000KT P6SM SCT015 FM021100 00000KT 3SM BR OVC015 FM021500 18010KT P6SM SCT025 FM021800 19012G18KT P6SM VCTS SCT025CB BKN050